Time;durP1;ratioP1;P1;durP2;ratioP2;P2;SDS_P1;SDS_P2;PMS_P1;PMS_P2;Temp;Humidity;BMP_temperature;BMP_pressure;BME280_temperature;BME280_humidity;BME280_pressure;Samples;Min_cycle;Max_cycle;Signal;HPM_P1;HPM_P2
2021/04/21 00:01:50;;;;;;;11.10;6.97;;;13.70;69.20;;;;;;4977668;28;20026;-81
2021/04/21 00:04:17;;;;;;;10.68;7.40;;;13.60;69.50;;;;;;4993968;28;20024;-81
2021/04/21 00:06:44;;;;;;;11.77;7.60;;;13.60;69.80;;;;;;4990488;28;20026;-81
2021/04/21 00:09:17;;;;;;;9.70;6.60;;;13.50;68.00;;;;;;4977630;28;20125;-81
2021/04/21 00:11:43;;;;;;;12.25;7.53;;;13.50;67.30;;;;;;4995187;28;20112;-81
2021/04/21 00:14:17;;;;;;;10.73;7.18;;;13.40;69.00;;;;;;4961542;28;20026;-81
2021/04/21 00:16:45;;;;;;;11.45;7.10;;;13.40;68.90;;;;;;4977026;28;20121;-81
2021/04/21 00:19:12;;;;;;;12.50;6.65;;;13.30;70.70;;;;;;4993648;28;20073;-81
2021/04/21 00:21:43;;;;;;;11.20;7.10;;;13.30;69.90;;;;;;4970950;28;20484;-81
2021/04/21 00:24:09;;;;;;;10.52;8.07;;;13.20;70.60;;;;;;4974101;28;20035;-81
2021/04/21 00:26:36;;;;;;;10.40;7.28;;;13.20;71.40;;;;;;4961386;28;20017;-80
2021/04/21 00:29:05;;;;;;;12.18;8.00;;;13.10;71.80;;;;;;4961290;28;20531;-81
2021/04/21 00:31:32;;;;;;;13.13;7.45;;;13.00;71.90;;;;;;4977383;28;20030;-81
2021/04/21 00:33:59;;;;;;;11.02;7.45;;;13.00;71.10;;;;;;4961254;28;20048;-81
2021/04/21 00:36:48;;;;;;;10.88;7.60;;;13.00;70.30;;;;;;4960983;28;20030;-81
2021/04/21 00:39:16;;;;;;;11.00;7.43;;;12.90;72.40;;;;;;4994784;28;20030;-81
2021/04/21 00:42:00;;;;;;;11.75;7.97;;;12.80;73.10;;;;;;4994525;28;20026;-81
2021/04/21 00:45:02;;;;;;;10.13;7.43;;;12.70;72.40;;;;;;4976934;28;20030;-81
2021/04/21 00:51:03;;;;;;;12.32;8.07;;;12.60;72.60;;;;;;4954343;28;20101;-81
2021/04/21 00:53:43;;;;;;;10.65;7.15;;;12.50;72.90;;;;;;4964515;28;20440;-81
2021/04/21 00:56:21;;;;;;;11.65;8.13;;;12.40;71.90;;;;;;4976631;28;20026;-81
2021/04/21 00:58:53;;;;;;;10.45;7.53;;;12.40;72.20;;;;;;4994461;28;20571;-81
2021/04/21 01:01:21;;;;;;;11.77;7.72;;;12.30;72.60;;;;;;4976750;28;20442;-80
2021/04/21 01:03:51;;;;;;;11.32;7.75;;;12.30;73.60;;;;;;4994318;28;20480;-81
2021/04/21 01:06:20;;;;;;;11.13;7.55;;;12.20;74.40;;;;;;4976663;28;20029;-80
2021/04/21 01:08:50;;;;;;;11.23;7.55;;;12.20;74.40;;;;;;4994182;28;20142;-81
2021/04/21 01:11:24;;;;;;;12.65;7.93;;;12.20;73.60;;;;;;4976671;28;20014;-81
2021/04/21 01:14:00;;;;;;;13.43;7.70;;;12.10;74.70;;;;;;4976074;28;20031;-81
2021/04/21 01:16:30;;;;;;;12.15;7.88;;;12.10;74.60;;;;;;4970409;28;20130;-81
2021/04/21 01:18:58;;;;;;;11.93;8.25;;;12.00;74.40;;;;;;4980422;28;20372;-81
2021/04/21 01:21:44;;;;;;;13.55;8.77;;;12.00;74.80;;;;;;4976402;28;20532;-80
2021/04/21 01:24:28;;;;;;;11.65;8.10;;;12.00;75.10;;;;;;4964274;28;20034;-81
2021/04/21 01:27:03;;;;;;;14.32;8.73;;;11.90;75.30;;;;;;4975858;28;20045;-80
2021/04/21 01:29:42;;;;;;;12.10;8.68;;;11.90;75.40;;;;;;4976412;28;20105;-80
2021/04/21 01:32:28;;;;;;;13.70;9.23;;;11.80;75.50;;;;;;4976511;28;20530;-81
2021/04/21 01:34:55;;;;;;;14.32;9.07;;;11.80;75.50;;;;;;4976641;28;20045;-81
2021/04/21 01:37:26;;;;;;;13.52;9.50;;;11.80;76.50;;;;;;4977374;28;20025;-79
2021/04/21 01:39:57;;;;;;;13.43;8.85;;;11.80;76.40;;;;;;4977174;28;20070;-81
2021/04/21 01:42:28;;;;;;;15.18;10.07;;;11.70;77.00;;;;;;4975956;28;20026;-81
2021/04/21 01:44:56;;;;;;;15.05;10.23;;;11.70;77.20;;;;;;4998047;28;20050;-81
2021/04/21 01:47:22;;;;;;;17.55;10.50;;;11.70;77.10;;;;;;4976090;28;20034;-80
2021/04/21 01:50:08;;;;;;;15.23;9.63;;;11.60;77.50;;;;;;4975482;28;20050;-81
2021/04/21 01:52:49;;;;;;;14.48;9.73;;;11.60;77.70;;;;;;4943683;28;20065;-80
2021/04/21 01:55:21;;;;;;;15.75;9.50;;;11.60;77.20;;;;;;4975952;28;20109;-80
2021/04/21 01:57:52;;;;;;;13.98;9.63;;;11.60;77.80;;;;;;4993031;28;20049;-80
2021/04/21 02:00:35;;;;;;;16.08;10.43;;;11.50;77.80;;;;;;4975618;28;20118;-80
2021/04/21 02:03:17;;;;;;;15.00;9.98;;;11.50;78.30;;;;;;4975646;28;20437;-81
2021/04/21 02:05:58;;;;;;;16.13;10.20;;;11.40;78.60;;;;;;4975605;28;20022;-81
2021/04/21 02:08:33;;;;;;;17.35;10.50;;;11.40;79.00;;;;;;4962599;28;20503;-81
2021/04/21 02:11:16;;;;;;;16.25;10.10;;;11.40;79.60;;;;;;4993209;28;20031;-81
2021/04/21 02:14:00;;;;;;;15.05;9.85;;;11.40;79.10;;;;;;4977149;28;20018;-81
2021/04/21 02:16:44;;;;;;;15.35;9.68;;;11.30;79.90;;;;;;4989690;28;20023;-81
2021/04/21 02:19:47;;;;;;;17.75;9.65;;;11.30;79.70;;;;;;4992912;28;20022;-81
2021/04/21 02:22:50;;;;;;;15.95;10.15;;;11.30;79.90;;;;;;4975476;28;20026;-80
2021/04/21 02:25:22;;;;;;;14.43;10.40;;;11.20;79.20;;;;;;4975260;28;20121;-80
2021/04/21 02:28:08;;;;;;;17.15;10.75;;;11.20;79.60;;;;;;4975078;28;20030;-80
2021/04/21 02:31:15;;;;;;;17.33;10.60;;;11.10;80.40;;;;;;4975293;28;20536;-81
2021/04/21 02:34:09;;;;;;;14.82;10.15;;;11.10;80.70;;;;;;4975216;28;20053;-81
2021/04/21 02:36:45;;;;;;;14.02;10.13;;;11.10;80.60;;;;;;4975229;28;20453;-81
2021/04/21 02:39:17;;;;;;;17.00;10.55;;;11.00;80.20;;;;;;4974437;28;20077;-80
2021/04/21 02:41:50;;;;;;;17.63;10.43;;;11.00;81.00;;;;;;4992656;28;20479;-81
2021/04/21 02:44:48;;;;;;;14.23;9.77;;;11.00;81.10;;;;;;4975036;28;20029;-81
2021/04/21 02:47:39;;;;;;;17.60;11.25;;;10.90;81.40;;;;;;4984544;28;20065;-80
2021/04/21 02:50:23;;;;;;;17.77;10.95;;;10.90;81.60;;;;;;4974793;28;20409;-81
2021/04/21 02:53:17;;;;;;;15.57;10.55;;;10.90;81.00;;;;;;4975073;28;20030;-81
2021/04/21 02:55:55;;;;;;;16.33;10.77;;;10.90;81.60;;;;;;4979250;28;20042;-81
2021/04/21 02:58:40;;;;;;;16.35;10.65;;;10.90;81.40;;;;;;4987486;28;20027;-81
2021/04/21 03:01:32;;;;;;;17.88;9.98;;;10.80;82.40;;;;;;4992476;28;20023;-81
2021/04/21 03:04:22;;;;;;;17.70;11.35;;;10.80;82.40;;;;;;4974974;28;20041;-81
2021/04/21 03:06:51;;;;;;;19.27;11.38;;;10.90;82.90;;;;;;4985463;28;20026;-81
2021/04/21 03:09:27;;;;;;;15.75;10.30;;;10.80;82.40;;;;;;4958896;28;20035;-81
2021/04/21 03:11:58;;;;;;;15.02;10.85;;;10.80;82.90;;;;;;4974935;28;20067;-81
2021/04/21 03:14:29;;;;;;;16.20;11.23;;;10.80;83.20;;;;;;4974977;28;20018;-81
2021/04/21 03:17:00;;;;;;;16.35;10.82;;;10.80;82.90;;;;;;4975051;28;20053;-80
2021/04/21 03:19:27;;;;;;;;;;;10.80;83.20;;;;;;4975127;28;20026;-80
2021/04/21 03:21:59;;;;;;;14.75;11.05;;;10.80;83.90;;;;;;4974819;28;20310;-81
2021/04/21 03:24:29;;;;;;;17.50;11.80;;;10.80;84.20;;;;;;4974748;28;20073;-81
2021/04/21 03:27:01;;;;;;;15.13;10.95;;;10.80;84.00;;;;;;4974800;28;20027;-81
2021/04/21 03:29:46;;;;;;;17.15;12.00;;;10.80;84.00;;;;;;4974793;28;20081;-81
2021/04/21 03:32:22;;;;;;;17.20;12.02;;;10.90;84.30;;;;;;4974519;28;20486;-81
2021/04/21 03:34:49;;;;;;;16.33;11.23;;;10.80;84.00;;;;;;4974792;28;20038;-81
2021/04/21 03:37:45;;;;;;;19.95;11.88;;;10.80;84.20;;;;;;4974754;28;20085;-81
2021/04/21 03:40:11;;;;;;;17.88;11.60;;;10.90;84.30;;;;;;4992276;28;20384;-81
2021/04/21 03:42:38;;;;;;;16.60;11.85;;;10.90;84.10;;;;;;4974467;28;20054;-81
2021/04/21 03:45:05;;;;;;;19.25;12.43;;;10.90;84.60;;;;;;4974759;28;20041;-81
2021/04/21 03:47:32;;;;;;;16.15;11.00;;;10.90;84.90;;;;;;4974488;28;20076;-81
2021/04/21 03:49:59;;;;;;;19.08;11.40;;;10.80;84.80;;;;;;4955270;28;20137;-81
2021/04/21 03:52:27;;;;;;;15.77;11.60;;;10.90;84.90;;;;;;4961772;28;20125;-81
2021/04/21 03:54:55;;;;;;;15.60;11.50;;;10.90;84.80;;;;;;4974391;28;20480;-81
2021/04/21 03:57:23;;;;;;;16.30;10.60;;;10.90;84.30;;;;;;4961933;28;20034;-81
2021/04/21 03:59:52;;;;;;;17.52;11.52;;;10.80;84.80;;;;;;4988305;28;20077;-81
2021/04/21 04:02:20;;;;;;;16.00;11.82;;;10.90;84.80;;;;;;4982170;28;20027;-81
2021/04/21 04:04:56;;;;;;;16.48;11.85;;;10.90;84.80;;;;;;4961760;28;20058;-81
2021/04/21 04:07:26;;;;;;;17.92;11.55;;;10.80;84.90;;;;;;4980336;28;20109;-81
2021/04/21 04:09:52;;;;;;;17.67;11.52;;;10.80;85.00;;;;;;4995306;28;20109;-81
2021/04/21 04:12:20;;;;;;;16.35;11.27;;;10.80;85.10;;;;;;4961551;28;20113;-81
2021/04/21 04:14:47;;;;;;;17.02;12.25;;;10.80;85.60;;;;;;4961592;28;20015;-81
2021/04/21 04:17:20;;;;;;;19.20;12.77;;;10.80;84.70;;;;;;4977769;28;20503;-81
2021/04/21 04:19:45;;;;;;;16.52;11.73;;;10.80;84.70;;;;;;4977716;28;20109;-81
2021/04/21 04:22:18;;;;;;;18.40;12.27;;;10.80;85.10;;;;;;4977625;28;20122;-80
2021/04/21 04:24:53;;;;;;;16.77;11.90;;;10.80;85.00;;;;;;4994862;28;20031;-81
2021/04/21 04:27:21;;;;;;;17.85;12.18;;;10.80;84.70;;;;;;4994808;28;20023;-80
2021/04/21 04:29:49;;;;;;;17.85;12.65;;;10.70;84.50;;;;;;4977465;28;20038;-81
2021/04/21 04:32:20;;;;;;;15.90;11.80;;;10.70;84.70;;;;;;4961067;28;20494;-81
2021/04/21 04:34:54;;;;;;;17.77;12.27;;;10.70;84.60;;;;;;4977408;28;20038;-81
2021/04/21 04:37:22;;;;;;;18.35;12.43;;;10.70;84.00;;;;;;4977408;28;20081;-80
2021/04/21 04:39:48;;;;;;;19.45;13.27;;;10.60;84.40;;;;;;4961322;28;20133;-81
2021/04/21 04:42:15;;;;;;;18.08;12.55;;;10.60;84.40;;;;;;4961170;28;20022;-81
2021/04/21 04:44:43;;;;;;;21.95;13.57;;;10.60;85.60;;;;;;4977664;28;20073;-80
2021/04/21 04:47:20;;;;;;;19.98;14.07;;;10.60;85.00;;;;;;4961479;28;20022;-81
2021/04/21 04:49:54;;;;;;;17.38;13.25;;;10.60;85.40;;;;;;4977190;28;20110;-81
2021/04/21 04:52:43;;;;;;;17.48;12.57;;;10.50;85.60;;;;;;4977392;28;20081;-81
2021/04/21 04:55:11;;;;;;;20.00;14.35;;;10.50;85.70;;;;;;4981067;28;20547;-81
2021/04/21 04:57:42;;;;;;;17.02;13.10;;;10.50;85.80;;;;;;4994426;28;20380;-81
2021/04/21 05:00:10;;;;;;;19.88;14.30;;;10.50;85.80;;;;;;4974715;28;20030;-81
2021/04/21 05:02:48;;;;;;;22.60;16.10;;;10.40;85.80;;;;;;4974382;28;20041;-81
2021/04/21 05:05:15;;;;;;;21.65;14.38;;;10.40;85.80;;;;;;4974558;28;20029;-81
2021/04/21 05:07:44;;;;;;;20.80;15.13;;;10.40;86.10;;;;;;4975579;28;20036;-81
2021/04/21 05:10:18;;;;;;;21.30;15.38;;;10.30;86.30;;;;;;4976338;28;20098;-81
2021/04/21 05:12:44;;;;;;;19.73;14.60;;;10.30;86.40;;;;;;4976972;28;20026;-81
2021/04/21 05:16:04;;;;;;;19.02;14.57;;;10.30;86.40;;;;;;4977492;28;20042;-80
2021/04/21 05:19:03;;;;;;;21.77;15.10;;;10.30;86.30;;;;;;4937550;29;20047;-81
2021/04/21 05:22:02;;;;;;;19.73;14.05;;;10.30;87.00;;;;;;4934184;29;20433;-80
2021/04/21 05:28:27;;;;;;;20.42;14.95;;;10.20;86.80;;;;;;4912184;29;20035;-81
2021/04/21 05:31:29;;;;;;;22.48;15.32;;;10.20;87.00;;;;;;4953802;28;20023;-81
2021/04/21 05:34:13;;;;;;;18.42;14.48;;;10.20;87.50;;;;;;4954294;29;20036;-81
2021/04/21 05:37:17;;;;;;;18.67;14.18;;;10.20;88.30;;;;;;4924691;29;20027;-81
2021/04/21 05:40:04;;;;;;;21.90;14.77;;;10.20;88.50;;;;;;4948173;29;20125;-81
2021/04/21 05:42:53;;;;;;;20.15;15.23;;;10.20;88.50;;;;;;4941226;29;20043;-81
2021/04/21 05:45:37;;;;;;;21.42;15.13;;;10.30;88.60;;;;;;4947542;29;20031;-81
2021/04/21 05:51:14;;;;;;;20.38;14.50;;;10.30;88.30;;;;;;5004621;28;20046;-81
2021/04/21 05:53:43;;;;;;;21.23;15.25;;;10.30;88.30;;;;;;4976958;28;20574;-81
2021/04/21 05:56:33;;;;;;;20.38;14.60;;;10.40;88.60;;;;;;5011027;28;20023;-81
2021/04/21 05:59:35;;;;;;;18.58;13.85;;;10.40;88.70;;;;;;5007951;28;20030;-81
2021/04/21 06:02:03;;;;;;;21.05;14.00;;;10.50;88.60;;;;;;5006681;28;20029;-81
2021/04/21 06:04:29;;;;;;;18.40;13.63;;;10.50;88.60;;;;;;5002446;28;20018;-81
2021/04/21 06:07:10;;;;;;;17.55;13.48;;;10.60;88.50;;;;;;4977319;28;20111;-81
2021/04/21 06:09:37;;;;;;;18.38;13.80;;;10.60;88.50;;;;;;5006428;28;20117;-81
2021/04/21 06:12:09;;;;;;;17.10;13.60;;;10.70;88.20;;;;;;5005703;28;20026;-81
2021/04/21 06:14:35;;;;;;;16.80;12.95;;;10.70;87.60;;;;;;5000974;28;20124;-81
2021/04/21 06:17:02;;;;;;;18.27;13.57;;;10.70;87.20;;;;;;4997725;28;20034;-81
2021/04/21 06:19:28;;;;;;;17.40;12.63;;;10.80;87.20;;;;;;5009368;28;20030;-81
2021/04/21 06:21:54;;;;;;;15.85;11.95;;;10.90;87.20;;;;;;5005958;28;20080;-81
2021/04/21 06:24:24;;;;;;;16.25;12.02;;;10.90;87.30;;;;;;4989815;28;20096;-81
2021/04/21 06:26:50;;;;;;;14.73;11.20;;;11.00;87.40;;;;;;5007566;28;20026;-80
2021/04/21 06:29:16;;;;;;;16.17;12.05;;;11.00;87.40;;;;;;5009139;28;20524;-81
2021/04/21 06:32:01;;;;;;;15.45;11.68;;;11.00;87.20;;;;;;5011015;28;20026;-81
2021/04/21 06:34:27;;;;;;;15.85;10.57;;;11.10;86.90;;;;;;5003173;28;20495;-80
2021/04/21 06:36:57;;;;;;;15.75;11.20;;;11.10;86.80;;;;;;5011136;28;20057;-81
2021/04/21 06:39:23;;;;;;;14.60;9.68;;;11.10;86.50;;;;;;5010824;28;20030;-80
2021/04/21 06:42:00;;;;;;;13.30;10.60;;;11.20;86.40;;;;;;4993849;28;20037;-80
2021/04/21 06:44:47;;;;;;;12.85;9.43;;;11.20;86.50;;;;;;5011017;28;20038;-80
2021/04/21 06:47:26;;;;;;;11.63;9.13;;;11.30;86.50;;;;;;5011039;28;20072;-80
2021/04/21 06:50:00;;;;;;;13.02;8.98;;;11.40;86.10;;;;;;4996910;28;20042;-80
2021/04/21 06:52:40;;;;;;;12.45;9.00;;;11.40;86.10;;;;;;5011948;28;20038;-80
2021/04/21 06:55:08;;;;;;;12.43;8.57;;;11.50;86.00;;;;;;5002007;28;20037;-80
2021/04/21 06:57:34;;;;;;;13.43;9.15;;;11.50;85.60;;;;;;4991122;28;20022;-80
2021/04/21 07:00:09;;;;;;;12.65;9.45;;;11.60;85.30;;;;;;4991075;28;20037;-80
2021/04/21 07:02:36;;;;;;;12.45;10.05;;;11.60;84.80;;;;;;5006377;28;20464;-81
2021/04/21 07:05:03;;;;;;;11.90;9.20;;;11.70;84.30;;;;;;5005131;28;20018;-81
2021/04/21 07:07:29;;;;;;;13.23;10.20;;;11.70;83.90;;;;;;4990246;28;20034;-81
2021/04/21 07:09:56;;;;;;;13.15;9.85;;;11.80;83.80;;;;;;5000217;28;20377;-81
2021/04/21 07:12:25;;;;;;;14.68;11.68;;;11.80;83.50;;;;;;4986138;28;20110;-81
2021/04/21 07:14:51;;;;;;;15.13;11.98;;;11.90;83.10;;;;;;4999169;28;20026;-81
2021/04/21 07:17:18;;;;;;;17.42;12.10;;;12.00;82.70;;;;;;5008827;28;20034;-81
2021/04/21 07:19:45;;;;;;;15.05;11.95;;;12.00;82.70;;;;;;5009035;28;20423;-81
2021/04/21 07:22:13;;;;;;;14.50;11.15;;;12.10;82.80;;;;;;4992715;28;20035;-81
2021/04/21 07:24:39;;;;;;;15.38;10.40;;;12.10;82.60;;;;;;4999064;28;20068;-81
2021/04/21 07:27:09;;;;;;;14.93;11.30;;;12.20;82.60;;;;;;5013597;28;20026;-81
2021/04/21 07:29:36;;;;;;;14.98;10.63;;;12.30;82.30;;;;;;5014014;28;20040;-81
2021/04/21 07:32:19;;;;;;;14.68;9.40;;;12.30;81.20;;;;;;5015486;28;20112;-81
2021/04/21 07:34:57;;;;;;;12.25;9.40;;;12.30;81.50;;;;;;5002506;28;20038;-81
2021/04/21 07:37:38;;;;;;;13.77;10.75;;;12.40;81.40;;;;;;5015649;28;20483;-81
2021/04/21 07:40:27;;;;;;;13.93;10.13;;;12.50;81.70;;;;;;5007487;28;20131;-81
2021/04/21 07:43:05;;;;;;;15.57;10.48;;;12.60;81.00;;;;;;4996292;28;20379;-81
2021/04/21 07:45:54;;;;;;;13.63;9.82;;;12.60;80.80;;;;;;5006801;28;20025;-80
2021/04/21 07:48:37;;;;;;;14.57;11.05;;;12.70;81.00;;;;;;5002998;28;20030;-81
2021/04/21 07:51:26;;;;;;;14.00;11.00;;;12.80;80.10;;;;;;5012006;28;20092;-81
2021/04/21 07:54:00;;;;;;;16.55;10.40;;;12.80;80.40;;;;;;4986630;28;20042;-81
2021/04/21 07:56:33;;;;;;;12.95;10.30;;;12.90;80.80;;;;;;5012178;28;20030;-81
2021/04/21 07:59:13;;;;;;;13.43;10.18;;;13.00;80.50;;;;;;4995473;28;20022;-82
2021/04/21 08:01:39;;;;;;;13.40;9.40;;;13.10;79.90;;;;;;5009021;28;20470;-82
2021/04/21 08:04:19;;;;;;;11.98;8.85;;;13.20;79.80;;;;;;4994192;28;20131;-82
2021/04/21 08:06:47;;;;;;;14.18;9.77;;;13.30;79.70;;;;;;5008906;28;20065;-82
2021/04/21 08:09:13;;;;;;;11.77;8.40;;;13.40;79.50;;;;;;4969948;28;20026;-82
2021/04/21 08:11:38;;;;;;;10.50;8.52;;;13.50;79.40;;;;;;4993808;28;20129;-82
2021/04/21 08:14:04;;;;;;;12.45;8.27;;;13.60;78.70;;;;;;4987921;28;20384;-82
2021/04/21 08:16:35;;;;;;;11.65;8.48;;;13.70;78.40;;;;;;4995180;28;20026;-82
2021/04/21 08:19:13;;;;;;;12.25;8.73;;;13.80;78.20;;;;;;5003042;28;20064;-81
2021/04/21 08:21:48;;;;;;;12.43;8.82;;;13.90;77.60;;;;;;5013274;28;20030;-81
2021/04/21 08:24:15;;;;;;;11.90;9.15;;;14.00;77.50;;;;;;5013187;28;20062;-82
2021/04/21 08:26:49;;;;;;;13.98;9.35;;;14.00;76.60;;;;;;4993988;28;20362;-82
2021/04/21 08:29:16;;;;;;;13.25;9.10;;;14.10;76.60;;;;;;4992370;28;20030;-82
2021/04/21 08:31:51;;;;;;;13.18;8.73;;;14.30;76.30;;;;;;5004141;28;20379;-82
2021/04/21 08:34:20;;;;;;;11.77;8.43;;;14.40;76.30;;;;;;5014640;28;20024;-82
2021/04/21 08:36:47;;;;;;;14.77;8.75;;;14.50;76.80;;;;;;4986003;28;20038;-82
2021/04/21 08:39:13;;;;;;;12.05;9.02;;;14.60;75.80;;;;;;5009755;28;20022;-82
2021/04/21 08:41:40;;;;;;;13.23;8.38;;;14.70;74.80;;;;;;4996689;28;20037;-83
2021/04/21 08:44:06;;;;;;;12.13;8.65;;;14.80;74.80;;;;;;5012893;28;20029;-82
2021/04/21 08:46:33;;;;;;;15.10;8.50;;;14.90;73.80;;;;;;5013140;28;20330;-82
2021/04/21 08:49:00;;;;;;;11.25;8.23;;;15.00;73.50;;;;;;5000316;28;20043;-82
2021/04/21 08:51:27;;;;;;;10.75;8.13;;;15.10;72.80;;;;;;4996048;28;20034;-82
2021/04/21 08:53:57;;;;;;;14.57;8.18;;;15.20;71.80;;;;;;5014115;28;20388;-82
2021/04/21 08:56:25;;;;;;;10.98;8.20;;;15.30;71.50;;;;;;5013006;28;20051;-82
2021/04/21 08:58:51;;;;;;;13.27;8.68;;;15.40;70.80;;;;;;5012489;28;20562;-82
2021/04/21 09:01:18;;;;;;;14.02;8.55;;;15.40;70.90;;;;;;5012624;28;20038;-81
2021/04/21 09:03:47;;;;;;;12.77;8.65;;;15.60;71.00;;;;;;5012590;28;20037;-82
2021/04/21 09:06:15;;;;;;;11.65;8.05;;;15.60;70.90;;;;;;4999410;28;20445;-81
2021/04/21 09:08:42;;;;;;;12.85;8.48;;;15.70;70.50;;;;;;4983345;28;20391;-82
2021/04/21 09:11:08;;;;;;;11.75;8.20;;;15.80;70.10;;;;;;4987759;28;20038;-81
2021/04/21 09:13:35;;;;;;;10.75;8.02;;;15.80;69.70;;;;;;4996819;28;20104;-82
2021/04/21 09:16:00;;;;;;;11.07;7.95;;;15.90;69.90;;;;;;5003973;28;20113;-82
2021/04/21 09:18:27;;;;;;;10.75;7.38;;;15.90;70.30;;;;;;4982287;28;20466;-81
2021/04/21 09:20:53;;;;;;;9.25;6.65;;;16.00;68.70;;;;;;4978524;28;20041;-83
2021/04/21 09:23:20;;;;;;;10.07;7.35;;;16.10;68.70;;;;;;5003147;28;20049;-83
2021/04/21 09:25:49;;;;;;;10.93;7.43;;;16.20;69.00;;;;;;4994528;28;20080;-83
2021/04/21 09:28:18;;;;;;;8.68;6.35;;;16.30;69.10;;;;;;5011567;28;20026;-83
2021/04/21 09:30:54;;;;;;;9.27;7.10;;;16.30;69.00;;;;;;5012172;28;20037;-83
2021/04/21 09:33:20;;;;;;;10.50;7.75;;;16.50;68.70;;;;;;5012162;28;20022;-84
2021/04/21 09:35:47;;;;;;;8.43;6.65;;;16.60;67.10;;;;;;4980766;28;20057;-83
2021/04/21 09:38:21;;;;;;;9.80;6.65;;;16.60;66.70;;;;;;4976911;28;20030;-84
2021/04/21 09:40:55;;;;;;;8.48;5.82;;;16.70;66.40;;;;;;4995583;28;20467;-85
2021/04/21 09:43:23;;;;;;;10.00;6.63;;;16.80;65.20;;;;;;4999958;28;20072;-85
2021/04/21 09:45:58;;;;;;;9.65;5.60;;;16.90;64.30;;;;;;5007649;28;20037;-84
2021/04/21 09:48:33;;;;;;;8.95;6.55;;;17.00;63.60;;;;;;5003088;28;20101;-84
2021/04/21 09:51:03;;;;;;;7.82;6.32;;;17.00;63.20;;;;;;5010339;28;20025;-83
2021/04/21 09:53:32;;;;;;;10.70;6.82;;;17.10;61.80;;;;;;5008458;28;20046;-85
2021/04/21 09:56:00;;;;;;;9.25;5.70;;;17.10;62.50;;;;;;5009584;28;20467;-84
2021/04/21 09:58:30;;;;;;;10.25;6.30;;;17.20;62.70;;;;;;4992744;28;20045;-85
2021/04/21 10:00:56;;;;;;;8.35;5.30;;;17.20;62.40;;;;;;4995509;28;20063;-85
2021/04/21 10:03:22;;;;;;;8.70;5.57;;;17.30;62.50;;;;;;5008050;28;20014;-85
2021/04/21 10:05:48;;;;;;;9.73;6.05;;;17.40;62.10;;;;;;4973894;28;20026;-84
2021/04/21 10:08:22;;;;;;;7.90;5.13;;;17.40;62.40;;;;;;4981346;28;20026;-84
2021/04/21 10:11:02;;;;;;;7.20;5.32;;;17.60;63.10;;;;;;4999889;28;20062;-85
2021/04/21 10:13:40;;;;;;;9.80;6.20;;;17.70;62.50;;;;;;5011246;28;20035;-85
2021/04/21 10:16:07;;;;;;;9.45;5.72;;;17.80;61.30;;;;;;5011043;28;20509;-85
2021/04/21 10:18:33;;;;;;;9.68;6.10;;;17.80;60.60;;;;;;5012235;28;20415;-85
2021/04/21 10:20:59;;;;;;;9.50;5.60;;;17.90;61.00;;;;;;4992542;28;20141;-84
2021/04/21 10:23:24;;;;;;;8.07;5.50;;;18.00;61.50;;;;;;5011118;28;20034;-83
2021/04/21 10:25:50;;;;;;;8.52;5.78;;;18.00;61.20;;;;;;5011107;28;20025;-83
2021/04/21 10:28:16;;;;;;;8.30;5.55;;;18.20;60.00;;;;;;5008309;28;20034;-84
2021/04/21 10:30:43;;;;;;;9.20;6.05;;;18.20;60.10;;;;;;5002145;28;20089;-84
2021/04/21 10:33:10;;;;;;;10.32;5.95;;;18.30;59.50;;;;;;5004548;28;20083;-83
2021/04/21 10:35:36;;;;;;;9.75;5.97;;;18.40;60.10;;;;;;5000645;28;20022;-84
2021/04/21 10:38:01;;;;;;;11.10;7.40;;;18.40;60.50;;;;;;5007675;28;20028;-84
2021/04/21 10:40:29;;;;;;;10.68;7.03;;;18.50;59.20;;;;;;4979436;28;20038;-84
2021/04/21 10:43:00;;;;;;;9.85;6.53;;;18.60;58.70;;;;;;4997118;28;20037;-84
2021/04/21 10:45:28;;;;;;;9.17;6.27;;;18.70;59.10;;;;;;5001001;28;20025;-84
2021/04/21 10:47:55;;;;;;;10.20;6.55;;;18.70;58.70;;;;;;5009920;28;20490;-84
2021/04/21 10:50:35;;;;;;;10.43;6.80;;;18.80;58.80;;;;;;5010324;28;20029;-83
2021/04/21 10:53:01;;;;;;;9.80;6.97;;;18.90;58.30;;;;;;5010961;28;20031;-84
2021/04/21 10:55:37;;;;;;;10.10;7.18;;;19.00;57.70;;;;;;5012064;28;20024;-84
2021/04/21 10:58:09;;;;;;;9.82;7.45;;;19.10;58.00;;;;;;5010996;28;20053;-84
2021/04/21 11:00:51;;;;;;;10.80;7.13;;;19.10;56.90;;;;;;5007409;28;20057;-84
2021/04/21 11:03:26;;;;;;;10.73;7.97;;;19.20;57.70;;;;;;5012199;28;20018;-84
2021/04/21 11:05:58;;;;;;;10.38;7.45;;;19.30;57.80;;;;;;5011527;28;20053;-83
2021/04/21 11:08:29;;;;;;;10.43;7.40;;;19.30;58.70;;;;;;5015112;28;20037;-84
2021/04/21 11:11:04;;;;;;;11.23;7.78;;;19.50;57.10;;;;;;4997627;28;20057;-83
2021/04/21 11:13:37;;;;;;;9.55;6.82;;;19.50;57.80;;;;;;5004347;28;20029;-83
2021/04/21 11:16:12;;;;;;;12.60;8.60;;;19.60;57.40;;;;;;5011553;28;20062;-83
2021/04/21 11:18:39;;;;;;;15.43;10.75;;;19.70;58.60;;;;;;5000980;28;20040;-83
2021/04/21 11:21:07;;;;;;;15.20;11.43;;;19.80;58.10;;;;;;5015712;28;20040;-84
2021/04/21 11:24:01;;;;;;;13.68;10.68;;;19.90;57.70;;;;;;5016851;28;20018;-85
2021/04/21 11:26:27;;;;;;;13.82;10.60;;;19.90;57.10;;;;;;5011380;28;20021;-84
2021/04/21 11:29:06;;;;;;;14.18;11.00;;;19.90;58.00;;;;;;5009490;28;20496;-84
2021/04/21 11:31:44;;;;;;;15.15;11.27;;;19.80;58.20;;;;;;4992435;28;20037;-85
2021/04/21 11:34:13;;;;;;;14.20;9.70;;;19.90;58.10;;;;;;5009203;28;20022;-84
2021/04/21 11:36:41;;;;;;;15.43;10.55;;;19.90;57.60;;;;;;5012589;28;20033;-85
2021/04/21 11:39:12;;;;;;;12.43;8.98;;;20.00;57.20;;;;;;5014655;28;20030;-84
2021/04/21 11:41:46;;;;;;;14.23;9.20;;;20.00;56.90;;;;;;5012913;28;20101;-84
2021/04/21 11:44:47;;;;;;;11.95;8.48;;;20.10;56.40;;;;;;5014822;28;20022;-84
2021/04/21 11:47:27;;;;;;;11.73;8.65;;;20.20;56.30;;;;;;5006806;28;20423;-85
2021/04/21 11:50:06;;;;;;;12.98;8.35;;;20.20;54.60;;;;;;5029315;23;20068;-87
2021/04/21 11:53:02;;;;;;;9.88;7.50;;;20.30;55.30;;;;;;5011962;28;20521;-88
2021/04/21 11:55:33;;;;;;;13.82;8.38;;;20.30;54.30;;;;;;4997860;28;20025;-87
2021/04/21 11:58:18;;;;;;;10.70;8.30;;;20.40;55.20;;;;;;5017932;28;20470;-86
2021/04/21 12:00:45;;;;;;;12.38;9.05;;;20.40;54.60;;;;;;5016614;28;20021;-87
2021/04/21 12:03:21;;;;;;;12.60;9.10;;;20.40;55.60;;;;;;5033329;28;20018;-86
2021/04/21 12:05:50;;;;;;;11.25;8.65;;;20.50;55.60;;;;;;5015034;28;20522;-86
2021/04/21 12:08:23;;;;;;;11.20;8.65;;;20.50;54.90;;;;;;5006062;28;20017;-86
2021/04/21 12:10:50;;;;;;;12.00;8.80;;;20.40;54.70;;;;;;5008810;28;20029;-87
2021/04/21 12:13:24;;;;;;;12.18;8.80;;;20.40;54.30;;;;;;5029307;28;20026;-87
2021/04/21 12:15:56;;;;;;;15.45;10.98;;;20.40;53.90;;;;;;5022415;28;20048;-87
2021/04/21 12:18:25;;;;;;;16.17;11.55;;;20.50;54.80;;;;;;5020355;28;20120;-88
2021/04/21 12:20:52;;;;;;;17.98;12.77;;;20.50;56.20;;;;;;5022863;28;20104;-87
2021/04/21 12:23:29;;;;;;;17.77;12.95;;;20.50;57.50;;;;;;5007924;28;20025;-87
2021/04/21 12:25:55;;;;;;;16.20;12.45;;;20.40;56.40;;;;;;5015108;28;20099;-87
2021/04/21 12:28:21;;;;;;;15.38;12.52;;;20.40;57.60;;;;;;5009321;28;20028;-87
2021/04/21 12:30:58;;;;;;;16.95;11.48;;;20.30;56.10;;;;;;4988275;28;20025;-87
2021/04/21 12:33:25;;;;;;;15.88;11.43;;;20.30;59.00;;;;;;5017912;28;20029;-87
2021/04/21 12:35:56;;;;;;;16.80;11.75;;;20.20;56.90;;;;;;5017715;28;20017;-86
2021/04/21 12:38:27;;;;;;;14.82;10.73;;;20.10;58.40;;;;;;5017845;28;20018;-86
2021/04/21 12:40:52;;;;;;;13.85;10.20;;;20.10;58.50;;;;;;5015708;28;20026;-86
2021/04/21 12:43:19;;;;;;;13.82;10.00;;;20.20;58.90;;;;;;5001686;28;20025;-87
2021/04/21 12:45:45;;;;;;;13.93;9.77;;;20.20;58.70;;;;;;4987724;28;20112;-85
2021/04/21 12:48:21;;;;;;;14.38;9.15;;;20.30;57.40;;;;;;5017293;28;20080;-86
2021/04/21 12:50:51;;;;;;;12.73;9.18;;;20.30;56.30;;;;;;5027919;28;20116;-85
2021/04/21 12:53:19;;;;;;;12.45;7.55;;;20.40;58.10;;;;;;5005621;28;20025;-87
2021/04/21 12:55:49;;;;;;;8.95;7.32;;;20.50;57.40;;;;;;5023932;28;20112;-86
2021/04/21 12:58:38;;;;;;;13.83;8.10;;;20.50;58.30;;;;;;5021578;28;20076;-86
2021/04/21 13:01:13;;;;;;;10.20;6.90;;;20.60;55.50;;;;;;5006711;28;20737;-86
2021/04/21 13:03:54;;;;;;;10.23;6.35;;;20.60;55.90;;;;;;5034867;28;20017;-84
2021/04/21 13:06:38;;;;;;;10.13;6.03;;;20.60;56.20;;;;;;5017386;28;20100;-85
2021/04/21 13:09:11;;;;;;;8.95;6.10;;;20.60;54.80;;;;;;5034173;28;20018;-86
2021/04/21 13:11:39;;;;;;;8.02;5.40;;;20.70;56.10;;;;;;5012308;28;20022;-86
2021/04/21 13:14:06;;;;;;;9.35;4.22;;;20.70;55.40;;;;;;5027156;28;20305;-84
2021/04/21 13:16:38;;;;;;;6.85;4.30;;;20.80;57.10;;;;;;5015879;28;20106;-85